sensor_id;sensor_type;location;lat;lon;timestamp;P1;durP1;ratioP1;P2;durP2;ratioP2
67108;SDS011;54027;50.786;7.058;2023-08-31T00:01:08;6.55;;;3.60;;
67108;SDS011;54027;50.786;7.058;2023-08-31T00:03:34;7.03;;;3.70;;
67108;SDS011;54027;50.786;7.058;2023-08-31T00:06:03;7.10;;;4.30;;
67108;SDS011;54027;50.786;7.058;2023-08-31T00:08:33;6.90;;;2.88;;
67108;SDS011;54027;50.786;7.058;2023-08-31T00:10:59;6.60;;;3.55;;
67108;SDS011;54027;50.786;7.058;2023-08-31T00:13:25;7.13;;;3.10;;
67108;SDS011;54027;50.786;7.058;2023-08-31T00:15:55;4.60;;;3.00;;
67108;SDS011;54027;50.786;7.058;2023-08-31T00:18:25;8.45;;;4.15;;
67108;SDS011;54027;50.786;7.058;2023-08-31T00:20:50;6.57;;;3.03;;
67108;SDS011;54027;50.786;7.058;2023-08-31T00:23:16;7.13;;;3.45;;
67108;SDS011;54027;50.786;7.058;2023-08-31T00:25:41;6.43;;;3.33;;
67108;SDS011;54027;50.786;7.058;2023-08-31T00:28:08;9.82;;;3.40;;
67108;SDS011;54027;50.786;7.058;2023-08-31T00:30:34;6.70;;;3.40;;
67108;SDS011;54027;50.786;7.058;2023-08-31T00:32:59;4.82;;;2.70;;
67108;SDS011;54027;50.786;7.058;2023-08-31T00:35:26;4.70;;;2.92;;
67108;SDS011;54027;50.786;7.058;2023-08-31T00:37:55;6.88;;;3.60;;
67108;SDS011;54027;50.786;7.058;2023-08-31T00:40:24;5.50;;;3.15;;
67108;SDS011;54027;50.786;7.058;2023-08-31T00:42:50;5.47;;;3.05;;
67108;SDS011;54027;50.786;7.058;2023-08-31T00:45:17;6.95;;;3.25;;
67108;SDS011;54027;50.786;7.058;2023-08-31T00:47:42;10.75;;;3.55;;
67108;SDS011;54027;50.786;7.058;2023-08-31T00:50:08;5.60;;;3.15;;
67108;SDS011;54027;50.786;7.058;2023-08-31T00:52:34;5.20;;;2.70;;
67108;SDS011;54027;50.786;7.058;2023-08-31T00:54:59;5.40;;;3.20;;
67108;SDS011;54027;50.786;7.058;2023-08-31T00:57:28;4.85;;;3.67;;
67108;SDS011;54027;50.786;7.058;2023-08-31T00:59:53;6.85;;;3.05;;
67108;SDS011;54027;50.786;7.058;2023-08-31T01:02:22;11.55;;;3.70;;
67108;SDS011;54027;50.786;7.058;2023-08-31T01:07:25;3.75;;;2.53;;
67108;SDS011;54027;50.786;7.058;2023-08-31T01:10:29;4.90;;;3.03;;
67108;SDS011;54027;50.786;7.058;2023-08-31T01:13:07;3.70;;;2.60;;
67108;SDS011;54027;50.786;7.058;2023-08-31T01:15:39;10.95;;;3.58;;
67108;SDS011;54027;50.786;7.058;2023-08-31T01:18:09;5.65;;;3.20;;
67108;SDS011;54027;50.786;7.058;2023-08-31T01:20:49;6.95;;;3.10;;
67108;SDS011;54027;50.786;7.058;2023-08-31T01:23:29;5.28;;;2.70;;
67108;SDS011;54027;50.786;7.058;2023-08-31T01:25:58;13.38;;;3.83;;
67108;SDS011;54027;50.786;7.058;2023-08-31T01:28:24;7.60;;;3.08;;
67108;SDS011;54027;50.786;7.058;2023-08-31T01:30:50;6.38;;;3.33;;
67108;SDS011;54027;50.786;7.058;2023-08-31T01:33:15;8.43;;;2.97;;
67108;SDS011;54027;50.786;7.058;2023-08-31T01:35:42;5.20;;;2.67;;
67108;SDS011;54027;50.786;7.058;2023-08-31T01:38:11;6.15;;;2.80;;
67108;SDS011;54027;50.786;7.058;2023-08-31T01:40:44;5.47;;;2.70;;
67108;SDS011;54027;50.786;7.058;2023-08-31T01:43:17;6.65;;;3.67;;
67108;SDS011;54027;50.786;7.058;2023-08-31T01:45:44;10.95;;;4.28;;
67108;SDS011;54027;50.786;7.058;2023-08-31T01:48:13;6.60;;;3.03;;
67108;SDS011;54027;50.786;7.058;2023-08-31T01:50:39;5.70;;;3.15;;
67108;SDS011;54027;50.786;7.058;2023-08-31T01:53:04;5.28;;;2.60;;
67108;SDS011;54027;50.786;7.058;2023-08-31T01:55:31;8.13;;;3.40;;
67108;SDS011;54027;50.786;7.058;2023-08-31T01:57:57;4.88;;;3.13;;
67108;SDS011;54027;50.786;7.058;2023-08-31T02:00:23;5.85;;;3.03;;
67108;SDS011;54027;50.786;7.058;2023-08-31T02:02:48;4.05;;;2.80;;
67108;SDS011;54027;50.786;7.058;2023-08-31T02:05:14;5.25;;;2.92;;
67108;SDS011;54027;50.786;7.058;2023-08-31T02:07:39;6.22;;;3.20;;
67108;SDS011;54027;50.786;7.058;2023-08-31T02:10:05;10.38;;;3.67;;
67108;SDS011;54027;50.786;7.058;2023-08-31T02:12:31;6.75;;;3.55;;
67108;SDS011;54027;50.786;7.058;2023-08-31T02:14:57;7.18;;;3.40;;
67108;SDS011;54027;50.786;7.058;2023-08-31T02:17:23;6.35;;;3.25;;
67108;SDS011;54027;50.786;7.058;2023-08-31T02:19:48;4.60;;;3.15;;
67108;SDS011;54027;50.786;7.058;2023-08-31T02:22:14;5.82;;;3.47;;
67108;SDS011;54027;50.786;7.058;2023-08-31T02:24:39;4.55;;;3.00;;
67108;SDS011;54027;50.786;7.058;2023-08-31T02:27:04;6.15;;;3.80;;
67108;SDS011;54027;50.786;7.058;2023-08-31T02:29:30;7.40;;;4.00;;
67108;SDS011;54027;50.786;7.058;2023-08-31T02:31:55;7.30;;;3.72;;
67108;SDS011;54027;50.786;7.058;2023-08-31T02:34:20;7.30;;;3.25;;
67108;SDS011;54027;50.786;7.058;2023-08-31T02:36:46;4.65;;;3.53;;
67108;SDS011;54027;50.786;7.058;2023-08-31T02:39:11;5.57;;;3.25;;
67108;SDS011;54027;50.786;7.058;2023-08-31T02:41:37;7.13;;;4.22;;
67108;SDS011;54027;50.786;7.058;2023-08-31T02:44:03;9.63;;;4.85;;
67108;SDS011;54027;50.786;7.058;2023-08-31T02:46:29;9.23;;;4.75;;
67108;SDS011;54027;50.786;7.058;2023-08-31T02:48:54;7.75;;;4.13;;
67108;SDS011;54027;50.786;7.058;2023-08-31T02:51:19;6.72;;;3.78;;
67108;SDS011;54027;50.786;7.058;2023-08-31T02:53:45;8.18;;;3.53;;
67108;SDS011;54027;50.786;7.058;2023-08-31T02:56:10;4.93;;;3.53;;
67108;SDS011;54027;50.786;7.058;2023-08-31T02:58:36;6.05;;;3.63;;
67108;SDS011;54027;50.786;7.058;2023-08-31T03:01:08;10.23;;;4.28;;
67108;SDS011;54027;50.786;7.058;2023-08-31T03:03:36;7.30;;;4.18;;
67108;SDS011;54027;50.786;7.058;2023-08-31T03:06:02;5.82;;;3.55;;
67108;SDS011;54027;50.786;7.058;2023-08-31T03:08:27;7.53;;;3.65;;
67108;SDS011;54027;50.786;7.058;2023-08-31T03:10:52;4.72;;;3.65;;
67108;SDS011;54027;50.786;7.058;2023-08-31T03:13:18;8.02;;;3.88;;
67108;SDS011;54027;50.786;7.058;2023-08-31T03:15:43;6.40;;;3.38;;
67108;SDS011;54027;50.786;7.058;2023-08-31T03:18:09;4.38;;;3.38;;
67108;SDS011;54027;50.786;7.058;2023-08-31T03:20:34;7.72;;;4.05;;
67108;SDS011;54027;50.786;7.058;2023-08-31T03:22:59;4.60;;;3.42;;
67108;SDS011;54027;50.786;7.058;2023-08-31T03:25:26;4.80;;;3.78;;
67108;SDS011;54027;50.786;7.058;2023-08-31T03:27:52;7.03;;;4.72;;
67108;SDS011;54027;50.786;7.058;2023-08-31T03:30:18;5.75;;;4.70;;
67108;SDS011;54027;50.786;7.058;2023-08-31T03:32:43;4.50;;;3.92;;
67108;SDS011;54027;50.786;7.058;2023-08-31T03:35:08;6.95;;;4.63;;
67108;SDS011;54027;50.786;7.058;2023-08-31T03:37:34;6.93;;;4.53;;
67108;SDS011;54027;50.786;7.058;2023-08-31T03:40:00;6.07;;;4.53;;
67108;SDS011;54027;50.786;7.058;2023-08-31T03:42:25;8.57;;;4.90;;
67108;SDS011;54027;50.786;7.058;2023-08-31T03:44:50;7.05;;;4.97;;
67108;SDS011;54027;50.786;7.058;2023-08-31T03:47:16;8.48;;;4.65;;
67108;SDS011;54027;50.786;7.058;2023-08-31T03:49:41;7.22;;;4.38;;
67108;SDS011;54027;50.786;7.058;2023-08-31T03:52:06;9.10;;;4.20;;
67108;SDS011;54027;50.786;7.058;2023-08-31T03:54:32;8.25;;;4.47;;
67108;SDS011;54027;50.786;7.058;2023-08-31T03:56:57;6.60;;;4.53;;
67108;SDS011;54027;50.786;7.058;2023-08-31T03:59:23;5.72;;;3.88;;
67108;SDS011;54027;50.786;7.058;2023-08-31T04:01:51;6.57;;;4.30;;
67108;SDS011;54027;50.786;7.058;2023-08-31T04:04:16;6.93;;;4.07;;
67108;SDS011;54027;50.786;7.058;2023-08-31T04:06:42;8.15;;;4.70;;
67108;SDS011;54027;50.786;7.058;2023-08-31T04:09:07;6.85;;;4.45;;
67108;SDS011;54027;50.786;7.058;2023-08-31T04:11:33;6.90;;;4.70;;
67108;SDS011;54027;50.786;7.058;2023-08-31T04:13:58;8.23;;;4.65;;
67108;SDS011;54027;50.786;7.058;2023-08-31T04:16:23;5.53;;;4.28;;
67108;SDS011;54027;50.786;7.058;2023-08-31T04:18:49;4.68;;;3.47;;
67108;SDS011;54027;50.786;7.058;2023-08-31T04:21:17;6.82;;;4.20;;
67108;SDS011;54027;50.786;7.058;2023-08-31T04:23:43;4.85;;;3.85;;
67108;SDS011;54027;50.786;7.058;2023-08-31T04:26:09;7.38;;;4.65;;
67108;SDS011;54027;50.786;7.058;2023-08-31T04:28:36;6.68;;;3.63;;
67108;SDS011;54027;50.786;7.058;2023-08-31T04:31:04;9.32;;;4.28;;
67108;SDS011;54027;50.786;7.058;2023-08-31T04:33:30;10.98;;;4.75;;
67108;SDS011;54027;50.786;7.058;2023-08-31T04:35:55;4.63;;;3.60;;
67108;SDS011;54027;50.786;7.058;2023-08-31T04:38:20;6.43;;;4.10;;
67108;SDS011;54027;50.786;7.058;2023-08-31T04:40:46;8.38;;;4.78;;
67108;SDS011;54027;50.786;7.058;2023-08-31T04:43:11;6.50;;;3.90;;
67108;SDS011;54027;50.786;7.058;2023-08-31T04:45:36;5.55;;;4.07;;
67108;SDS011;54027;50.786;7.058;2023-08-31T04:48:02;6.45;;;3.95;;
67108;SDS011;54027;50.786;7.058;2023-08-31T04:50:28;6.82;;;4.03;;
67108;SDS011;54027;50.786;7.058;2023-08-31T04:52:54;6.63;;;4.05;;
67108;SDS011;54027;50.786;7.058;2023-08-31T04:55:20;7.38;;;4.40;;
67108;SDS011;54027;50.786;7.058;2023-08-31T04:57:47;9.90;;;4.80;;
67108;SDS011;54027;50.786;7.058;2023-08-31T05:00:12;8.18;;;4.78;;
67108;SDS011;54027;50.786;7.058;2023-08-31T05:02:38;10.75;;;4.40;;
67108;SDS011;54027;50.786;7.058;2023-08-31T05:05:04;10.65;;;4.82;;
67108;SDS011;54027;50.786;7.058;2023-08-31T05:07:30;6.53;;;4.55;;
67108;SDS011;54027;50.786;7.058;2023-08-31T05:09:56;4.78;;;4.03;;
67108;SDS011;54027;50.786;7.058;2023-08-31T05:12:21;5.05;;;4.10;;
67108;SDS011;54027;50.786;7.058;2023-08-31T05:14:47;6.90;;;4.78;;
67108;SDS011;54027;50.786;7.058;2023-08-31T05:17:12;6.78;;;4.30;;
67108;SDS011;54027;50.786;7.058;2023-08-31T05:19:38;7.43;;;3.85;;
67108;SDS011;54027;50.786;7.058;2023-08-31T05:22:03;9.68;;;4.60;;
67108;SDS011;54027;50.786;7.058;2023-08-31T05:24:29;9.65;;;4.60;;
67108;SDS011;54027;50.786;7.058;2023-08-31T05:26:54;5.40;;;4.30;;
67108;SDS011;54027;50.786;7.058;2023-08-31T05:29:20;8.70;;;4.72;;
67108;SDS011;54027;50.786;7.058;2023-08-31T05:31:45;6.63;;;4.28;;
67108;SDS011;54027;50.786;7.058;2023-08-31T05:34:10;7.55;;;4.15;;
67108;SDS011;54027;50.786;7.058;2023-08-31T05:36:36;8.50;;;4.40;;
67108;SDS011;54027;50.786;7.058;2023-08-31T05:39:22;7.55;;;4.32;;
67108;SDS011;54027;50.786;7.058;2023-08-31T05:41:48;5.88;;;4.07;;
67108;SDS011;54027;50.786;7.058;2023-08-31T05:44:14;6.38;;;4.15;;
67108;SDS011;54027;50.786;7.058;2023-08-31T05:46:39;9.18;;;4.10;;
67108;SDS011;54027;50.786;7.058;2023-08-31T05:49:05;7.15;;;3.90;;
67108;SDS011;54027;50.786;7.058;2023-08-31T05:51:31;7.63;;;4.45;;
67108;SDS011;54027;50.786;7.058;2023-08-31T05:53:57;8.07;;;3.83;;
67108;SDS011;54027;50.786;7.058;2023-08-31T05:56:22;5.78;;;3.78;;
67108;SDS011;54027;50.786;7.058;2023-08-31T05:58:47;8.57;;;3.75;;
67108;SDS011;54027;50.786;7.058;2023-08-31T06:01:15;5.13;;;3.58;;
67108;SDS011;54027;50.786;7.058;2023-08-31T06:03:40;6.65;;;3.90;;
67108;SDS011;54027;50.786;7.058;2023-08-31T06:06:06;6.03;;;3.92;;
67108;SDS011;54027;50.786;7.058;2023-08-31T06:08:32;6.15;;;3.58;;
67108;SDS011;54027;50.786;7.058;2023-08-31T06:10:57;10.43;;;3.90;;
67108;SDS011;54027;50.786;7.058;2023-08-31T06:13:22;5.55;;;3.47;;
67108;SDS011;54027;50.786;7.058;2023-08-31T06:15:48;8.63;;;4.35;;
67108;SDS011;54027;50.786;7.058;2023-08-31T06:18:13;6.57;;;3.67;;
67108;SDS011;54027;50.786;7.058;2023-08-31T06:20:38;6.90;;;3.70;;
67108;SDS011;54027;50.786;7.058;2023-08-31T06:23:04;6.50;;;3.42;;
67108;SDS011;54027;50.786;7.058;2023-08-31T06:25:30;4.43;;;2.85;;
67108;SDS011;54027;50.786;7.058;2023-08-31T06:27:55;7.65;;;3.05;;
67108;SDS011;54027;50.786;7.058;2023-08-31T06:30:20;4.90;;;2.92;;
67108;SDS011;54027;50.786;7.058;2023-08-31T06:32:46;7.65;;;2.88;;
67108;SDS011;54027;50.786;7.058;2023-08-31T06:35:13;4.53;;;2.53;;
67108;SDS011;54027;50.786;7.058;2023-08-31T06:37:39;5.22;;;3.50;;
67108;SDS011;54027;50.786;7.058;2023-08-31T06:40:05;6.10;;;2.70;;
67108;SDS011;54027;50.786;7.058;2023-08-31T06:42:33;5.47;;;3.20;;
67108;SDS011;54027;50.786;7.058;2023-08-31T06:44:59;8.85;;;3.15;;
67108;SDS011;54027;50.786;7.058;2023-08-31T06:47:24;6.63;;;2.88;;
67108;SDS011;54027;50.786;7.058;2023-08-31T06:49:50;3.80;;;2.60;;
67108;SDS011;54027;50.786;7.058;2023-08-31T06:52:15;5.78;;;2.83;;
67108;SDS011;54027;50.786;7.058;2023-08-31T06:54:41;3.53;;;2.58;;
67108;SDS011;54027;50.786;7.058;2023-08-31T06:57:06;6.03;;;2.63;;
67108;SDS011;54027;50.786;7.058;2023-08-31T06:59:32;7.30;;;2.88;;
67108;SDS011;54027;50.786;7.058;2023-08-31T07:01:58;7.13;;;2.38;;
67108;SDS011;54027;50.786;7.058;2023-08-31T07:04:23;4.55;;;2.10;;
67108;SDS011;54027;50.786;7.058;2023-08-31T07:06:49;2.85;;;1.90;;
67108;SDS011;54027;50.786;7.058;2023-08-31T07:09:14;7.10;;;2.58;;
67108;SDS011;54027;50.786;7.058;2023-08-31T07:11:42;4.57;;;2.08;;
67108;SDS011;54027;50.786;7.058;2023-08-31T07:14:08;3.75;;;1.60;;
67108;SDS011;54027;50.786;7.058;2023-08-31T07:16:33;4.63;;;1.90;;
67108;SDS011;54027;50.786;7.058;2023-08-31T07:18:58;3.25;;;1.70;;
67108;SDS011;54027;50.786;7.058;2023-08-31T07:21:24;5.22;;;1.90;;
67108;SDS011;54027;50.786;7.058;2023-08-31T07:23:49;5.00;;;2.20;;
67108;SDS011;54027;50.786;7.058;2023-08-31T07:26:14;5.28;;;1.92;;
67108;SDS011;54027;50.786;7.058;2023-08-31T07:28:41;4.30;;;2.00;;
67108;SDS011;54027;50.786;7.058;2023-08-31T07:31:06;5.72;;;1.98;;
67108;SDS011;54027;50.786;7.058;2023-08-31T07:33:33;8.05;;;2.63;;
67108;SDS011;54027;50.786;7.058;2023-08-31T07:36:02;3.42;;;1.83;;
67108;SDS011;54027;50.786;7.058;2023-08-31T07:38:29;5.45;;;1.70;;
67108;SDS011;54027;50.786;7.058;2023-08-31T07:40:55;4.93;;;1.80;;
67108;SDS011;54027;50.786;7.058;2023-08-31T07:43:21;4.03;;;1.70;;
67108;SDS011;54027;50.786;7.058;2023-08-31T07:45:47;7.22;;;2.20;;
67108;SDS011;54027;50.786;7.058;2023-08-31T07:48:12;5.15;;;1.52;;
67108;SDS011;54027;50.786;7.058;2023-08-31T07:50:40;3.80;;;1.83;;
67108;SDS011;54027;50.786;7.058;2023-08-31T07:53:06;4.18;;;1.75;;
67108;SDS011;54027;50.786;7.058;2023-08-31T07:55:32;2.47;;;1.20;;
67108;SDS011;54027;50.786;7.058;2023-08-31T07:57:57;2.95;;;1.33;;
67108;SDS011;54027;50.786;7.058;2023-08-31T08:00:23;5.25;;;1.30;;
67108;SDS011;54027;50.786;7.058;2023-08-31T08:02:48;7.72;;;1.83;;
67108;SDS011;54027;50.786;7.058;2023-08-31T08:05:14;3.25;;;1.50;;
67108;SDS011;54027;50.786;7.058;2023-08-31T08:07:39;4.65;;;1.35;;
67108;SDS011;54027;50.786;7.058;2023-08-31T08:10:08;4.05;;;1.67;;
67108;SDS011;54027;50.786;7.058;2023-08-31T08:12:38;4.65;;;1.52;;
67108;SDS011;54027;50.786;7.058;2023-08-31T08:15:04;4.93;;;1.30;;
67108;SDS011;54027;50.786;7.058;2023-08-31T08:17:33;3.20;;;1.20;;
67108;SDS011;54027;50.786;7.058;2023-08-31T08:19:58;2.70;;;1.13;;
67108;SDS011;54027;50.786;7.058;2023-08-31T08:22:24;3.00;;;1.10;;
67108;SDS011;54027;50.786;7.058;2023-08-31T08:24:50;3.70;;;1.58;;
67108;SDS011;54027;50.786;7.058;2023-08-31T08:27:18;2.92;;;1.30;;
67108;SDS011;54027;50.786;7.058;2023-08-31T08:29:45;3.13;;;1.20;;
67108;SDS011;54027;50.786;7.058;2023-08-31T08:32:11;2.63;;;1.35;;
67108;SDS011;54027;50.786;7.058;2023-08-31T08:34:36;2.25;;;1.10;;
67108;SDS011;54027;50.786;7.058;2023-08-31T08:37:01;1.98;;;1.23;;
67108;SDS011;54027;50.786;7.058;2023-08-31T08:39:28;3.38;;;0.95;;
67108;SDS011;54027;50.786;7.058;2023-08-31T08:41:54;2.28;;;1.00;;
67108;SDS011;54027;50.786;7.058;2023-08-31T08:44:24;3.30;;;1.27;;
67108;SDS011;54027;50.786;7.058;2023-08-31T08:46:51;4.82;;;1.40;;
67108;SDS011;54027;50.786;7.058;2023-08-31T08:49:18;3.45;;;1.40;;
67108;SDS011;54027;50.786;7.058;2023-08-31T08:51:44;4.50;;;1.63;;
67108;SDS011;54027;50.786;7.058;2023-08-31T08:54:12;2.63;;;1.15;;
67108;SDS011;54027;50.786;7.058;2023-08-31T08:56:38;1.70;;;1.00;;
67108;SDS011;54027;50.786;7.058;2023-08-31T08:59:03;4.75;;;1.20;;
67108;SDS011;54027;50.786;7.058;2023-08-31T09:01:29;3.03;;;1.20;;
67108;SDS011;54027;50.786;7.058;2023-08-31T09:03:56;4.35;;;1.45;;
67108;SDS011;54027;50.786;7.058;2023-08-31T09:06:22;2.30;;;1.15;;
67108;SDS011;54027;50.786;7.058;2023-08-31T09:08:54;3.03;;;1.20;;
67108;SDS011;54027;50.786;7.058;2023-08-31T09:11:25;3.95;;;1.25;;
67108;SDS011;54027;50.786;7.058;2023-08-31T09:13:51;2.20;;;1.13;;
67108;SDS011;54027;50.786;7.058;2023-08-31T09:16:24;3.40;;;1.05;;
67108;SDS011;54027;50.786;7.058;2023-08-31T09:18:56;3.45;;;1.52;;
67108;SDS011;54027;50.786;7.058;2023-08-31T09:21:22;2.15;;;1.13;;
67108;SDS011;54027;50.786;7.058;2023-08-31T09:23:58;2.92;;;0.95;;
67108;SDS011;54027;50.786;7.058;2023-08-31T09:28:49;3.67;;;1.00;;
67108;SDS011;54027;50.786;7.058;2023-08-31T09:31:15;3.78;;;1.15;;
67108;SDS011;54027;50.786;7.058;2023-08-31T09:33:48;3.47;;;1.30;;
67108;SDS011;54027;50.786;7.058;2023-08-31T09:38:44;3.10;;;1.20;;
67108;SDS011;54027;50.786;7.058;2023-08-31T09:41:10;1.70;;;1.00;;
67108;SDS011;54027;50.786;7.058;2023-08-31T09:43:36;2.05;;;1.30;;
67108;SDS011;54027;50.786;7.058;2023-08-31T09:46:02;3.03;;;1.10;;
67108;SDS011;54027;50.786;7.058;2023-08-31T09:48:29;3.50;;;1.10;;
67108;SDS011;54027;50.786;7.058;2023-08-31T09:50:55;4.32;;;1.38;;
67108;SDS011;54027;50.786;7.058;2023-08-31T09:53:23;3.13;;;0.95;;
67108;SDS011;54027;50.786;7.058;2023-08-31T09:55:51;2.97;;;1.15;;
67108;SDS011;54027;50.786;7.058;2023-08-31T09:58:20;3.33;;;1.25;;
67108;SDS011;54027;50.786;7.058;2023-08-31T10:00:46;4.30;;;1.60;;
67108;SDS011;54027;50.786;7.058;2023-08-31T10:03:16;5.53;;;1.20;;
67108;SDS011;54027;50.786;7.058;2023-08-31T10:05:45;2.17;;;0.98;;
67108;SDS011;54027;50.786;7.058;2023-08-31T10:08:12;3.63;;;1.02;;
67108;SDS011;54027;50.786;7.058;2023-08-31T10:10:38;4.43;;;1.23;;
67108;SDS011;54027;50.786;7.058;2023-08-31T10:13:05;2.63;;;1.05;;
67108;SDS011;54027;50.786;7.058;2023-08-31T10:15:34;5.90;;;1.25;;
67108;SDS011;54027;50.786;7.058;2023-08-31T10:18:01;3.17;;;1.00;;
67108;SDS011;54027;50.786;7.058;2023-08-31T10:20:28;2.75;;;1.08;;
67108;SDS011;54027;50.786;7.058;2023-08-31T10:22:59;4.53;;;1.58;;
67108;SDS011;54027;50.786;7.058;2023-08-31T10:25:59;3.95;;;1.40;;
67108;SDS011;54027;50.786;7.058;2023-08-31T10:33:31;4.78;;;1.42;;
67108;SDS011;54027;50.786;7.058;2023-08-31T10:36:00;2.70;;;1.23;;
67108;SDS011;54027;50.786;7.058;2023-08-31T10:38:30;3.13;;;1.40;;
67108;SDS011;54027;50.786;7.058;2023-08-31T10:41:03;2.40;;;1.30;;
67108;SDS011;54027;50.786;7.058;2023-08-31T10:43:47;3.25;;;1.35;;
67108;SDS011;54027;50.786;7.058;2023-08-31T10:48:53;3.65;;;1.23;;
67108;SDS011;54027;50.786;7.058;2023-08-31T10:51:27;2.58;;;1.17;;
67108;SDS011;54027;50.786;7.058;2023-08-31T10:54:13;5.10;;;1.33;;
67108;SDS011;54027;50.786;7.058;2023-08-31T10:59:18;3.05;;;1.45;;
67108;SDS011;54027;50.786;7.058;2023-08-31T11:02:00;3.92;;;1.40;;
67108;SDS011;54027;50.786;7.058;2023-08-31T11:04:28;3.00;;;1.23;;
67108;SDS011;54027;50.786;7.058;2023-08-31T11:09:43;3.70;;;1.73;;
67108;SDS011;54027;50.786;7.058;2023-08-31T11:12:09;4.32;;;1.80;;
67108;SDS011;54027;50.786;7.058;2023-08-31T11:14:35;5.95;;;1.30;;
67108;SDS011;54027;50.786;7.058;2023-08-31T11:17:01;5.38;;;1.80;;
67108;SDS011;54027;50.786;7.058;2023-08-31T11:19:29;4.25;;;1.45;;
67108;SDS011;54027;50.786;7.058;2023-08-31T11:21:54;3.85;;;1.52;;
67108;SDS011;54027;50.786;7.058;2023-08-31T11:24:20;3.88;;;1.42;;
67108;SDS011;54027;50.786;7.058;2023-08-31T11:26:49;2.95;;;1.60;;
67108;SDS011;54027;50.786;7.058;2023-08-31T11:29:15;3.42;;;1.50;;
67108;SDS011;54027;50.786;7.058;2023-08-31T11:31:40;4.28;;;1.60;;
67108;SDS011;54027;50.786;7.058;2023-08-31T11:34:06;4.93;;;1.75;;
67108;SDS011;54027;50.786;7.058;2023-08-31T11:36:39;3.20;;;1.45;;
67108;SDS011;54027;50.786;7.058;2023-08-31T11:39:05;5.72;;;1.70;;
67108;SDS011;54027;50.786;7.058;2023-08-31T11:41:34;6.93;;;1.73;;
67108;SDS011;54027;50.786;7.058;2023-08-31T11:44:02;4.68;;;1.77;;
67108;SDS011;54027;50.786;7.058;2023-08-31T11:46:28;2.95;;;1.42;;
67108;SDS011;54027;50.786;7.058;2023-08-31T11:48:54;5.07;;;1.50;;
67108;SDS011;54027;50.786;7.058;2023-08-31T11:51:20;6.75;;;1.50;;
67108;SDS011;54027;50.786;7.058;2023-08-31T11:53:46;6.18;;;1.85;;
67108;SDS011;54027;50.786;7.058;2023-08-31T11:56:12;9.27;;;2.22;;
67108;SDS011;54027;50.786;7.058;2023-08-31T11:58:43;6.47;;;1.92;;
67108;SDS011;54027;50.786;7.058;2023-08-31T12:01:11;7.85;;;2.30;;
67108;SDS011;54027;50.786;7.058;2023-08-31T12:03:43;5.00;;;2.08;;
67108;SDS011;54027;50.786;7.058;2023-08-31T12:06:14;6.45;;;2.33;;
67108;SDS011;54027;50.786;7.058;2023-08-31T12:08:41;4.68;;;1.90;;
67108;SDS011;54027;50.786;7.058;2023-08-31T12:11:07;7.20;;;1.83;;
67108;SDS011;54027;50.786;7.058;2023-08-31T12:13:32;5.43;;;1.98;;
67108;SDS011;54027;50.786;7.058;2023-08-31T12:15:57;4.53;;;1.50;;
67108;SDS011;54027;50.786;7.058;2023-08-31T12:18:23;4.85;;;2.00;;
67108;SDS011;54027;50.786;7.058;2023-08-31T12:20:49;4.10;;;1.73;;
67108;SDS011;54027;50.786;7.058;2023-08-31T12:23:17;3.55;;;2.00;;
67108;SDS011;54027;50.786;7.058;2023-08-31T12:25:49;6.25;;;2.70;;
67108;SDS011;54027;50.786;7.058;2023-08-31T12:28:19;3.88;;;2.00;;
67108;SDS011;54027;50.786;7.058;2023-08-31T12:30:47;3.03;;;1.80;;
67108;SDS011;54027;50.786;7.058;2023-08-31T12:33:14;4.18;;;1.75;;
67108;SDS011;54027;50.786;7.058;2023-08-31T12:35:39;4.63;;;1.98;;
67108;SDS011;54027;50.786;7.058;2023-08-31T12:38:05;2.83;;;1.60;;
67108;SDS011;54027;50.786;7.058;2023-08-31T12:40:30;3.63;;;2.10;;
67108;SDS011;54027;50.786;7.058;2023-08-31T12:42:56;5.82;;;2.10;;
67108;SDS011;54027;50.786;7.058;2023-08-31T12:45:21;8.15;;;2.25;;
67108;SDS011;54027;50.786;7.058;2023-08-31T12:47:46;4.18;;;2.42;;
67108;SDS011;54027;50.786;7.058;2023-08-31T12:50:12;4.65;;;2.40;;
67108;SDS011;54027;50.786;7.058;2023-08-31T12:52:38;4.68;;;2.15;;
67108;SDS011;54027;50.786;7.058;2023-08-31T12:55:09;5.88;;;2.80;;
67108;SDS011;54027;50.786;7.058;2023-08-31T12:57:35;5.22;;;2.25;;
67108;SDS011;54027;50.786;7.058;2023-08-31T13:00:01;3.80;;;2.55;;
67108;SDS011;54027;50.786;7.058;2023-08-31T13:02:28;5.10;;;2.60;;
67108;SDS011;54027;50.786;7.058;2023-08-31T13:04:53;5.82;;;2.50;;
67108;SDS011;54027;50.786;7.058;2023-08-31T13:07:19;5.93;;;2.97;;
67108;SDS011;54027;50.786;7.058;2023-08-31T13:09:44;6.47;;;2.53;;
67108;SDS011;54027;50.786;7.058;2023-08-31T13:12:09;8.10;;;2.75;;
67108;SDS011;54027;50.786;7.058;2023-08-31T13:14:35;8.38;;;3.15;;
67108;SDS011;54027;50.786;7.058;2023-08-31T13:17:00;7.07;;;2.78;;
67108;SDS011;54027;50.786;7.058;2023-08-31T13:19:26;4.75;;;2.67;;
67108;SDS011;54027;50.786;7.058;2023-08-31T13:21:51;7.35;;;2.85;;
67108;SDS011;54027;50.786;7.058;2023-08-31T13:24:17;7.35;;;2.97;;
67108;SDS011;54027;50.786;7.058;2023-08-31T13:26:42;5.18;;;2.65;;
67108;SDS011;54027;50.786;7.058;2023-08-31T13:29:12;8.65;;;3.13;;
67108;SDS011;54027;50.786;7.058;2023-08-31T13:31:38;5.68;;;2.63;;
67108;SDS011;54027;50.786;7.058;2023-08-31T13:34:04;8.13;;;2.35;;
67108;SDS011;54027;50.786;7.058;2023-08-31T13:36:31;7.70;;;2.40;;
67108;SDS011;54027;50.786;7.058;2023-08-31T13:38:57;8.27;;;2.28;;
67108;SDS011;54027;50.786;7.058;2023-08-31T13:41:22;8.52;;;2.97;;
67108;SDS011;54027;50.786;7.058;2023-08-31T13:43:48;6.18;;;2.70;;
67108;SDS011;54027;50.786;7.058;2023-08-31T13:46:13;7.35;;;2.47;;
67108;SDS011;54027;50.786;7.058;2023-08-31T13:48:39;4.93;;;2.50;;
67108;SDS011;54027;50.786;7.058;2023-08-31T13:51:04;6.95;;;2.70;;
67108;SDS011;54027;50.786;7.058;2023-08-31T13:53:29;5.20;;;2.40;;
67108;SDS011;54027;50.786;7.058;2023-08-31T13:55:55;5.45;;;2.10;;
67108;SDS011;54027;50.786;7.058;2023-08-31T13:58:20;6.32;;;1.90;;
67108;SDS011;54027;50.786;7.058;2023-08-31T14:00:46;5.03;;;2.65;;
67108;SDS011;54027;50.786;7.058;2023-08-31T14:03:11;5.20;;;2.45;;
67108;SDS011;54027;50.786;7.058;2023-08-31T14:05:37;5.38;;;2.58;;
67108;SDS011;54027;50.786;7.058;2023-08-31T14:08:02;8.40;;;2.40;;
67108;SDS011;54027;50.786;7.058;2023-08-31T14:10:29;4.88;;;2.45;;
67108;SDS011;54027;50.786;7.058;2023-08-31T14:12:56;6.63;;;3.00;;
67108;SDS011;54027;50.786;7.058;2023-08-31T14:15:22;6.50;;;2.17;;
67108;SDS011;54027;50.786;7.058;2023-08-31T14:17:49;3.85;;;2.13;;
67108;SDS011;54027;50.786;7.058;2023-08-31T14:20:15;6.82;;;2.03;;
67108;SDS011;54027;50.786;7.058;2023-08-31T14:22:40;7.15;;;2.58;;
67108;SDS011;54027;50.786;7.058;2023-08-31T14:25:09;3.95;;;2.40;;
67108;SDS011;54027;50.786;7.058;2023-08-31T14:27:35;4.50;;;1.77;;
67108;SDS011;54027;50.786;7.058;2023-08-31T14:30:01;7.57;;;2.42;;
67108;SDS011;54027;50.786;7.058;2023-08-31T14:32:27;4.40;;;1.88;;
67108;SDS011;54027;50.786;7.058;2023-08-31T14:34:53;6.40;;;2.20;;
67108;SDS011;54027;50.786;7.058;2023-08-31T14:37:20;5.32;;;1.90;;
67108;SDS011;54027;50.786;7.058;2023-08-31T14:39:45;5.43;;;1.95;;
67108;SDS011;54027;50.786;7.058;2023-08-31T14:42:11;5.75;;;2.03;;
67108;SDS011;54027;50.786;7.058;2023-08-31T14:44:36;3.13;;;1.65;;
67108;SDS011;54027;50.786;7.058;2023-08-31T14:47:02;5.32;;;1.67;;
67108;SDS011;54027;50.786;7.058;2023-08-31T14:49:28;8.75;;;2.15;;
67108;SDS011;54027;50.786;7.058;2023-08-31T14:51:53;7.35;;;2.35;;
67108;SDS011;54027;50.786;7.058;2023-08-31T14:54:19;4.05;;;2.30;;
67108;SDS011;54027;50.786;7.058;2023-08-31T14:56:44;3.25;;;2.08;;
67108;SDS011;54027;50.786;7.058;2023-08-31T14:59:10;5.22;;;2.15;;
67108;SDS011;54027;50.786;7.058;2023-08-31T15:01:35;4.53;;;2.00;;
67108;SDS011;54027;50.786;7.058;2023-08-31T15:04:01;5.70;;;2.25;;
67108;SDS011;54027;50.786;7.058;2023-08-31T15:06:27;5.10;;;2.38;;